Главная страница
METAR-TAF:

METAR-TAF

Аэропорты :

Tôlanaro, Мадагаскар

широта: 25-02S, долгота: 046-57E, высота над уровнем моря: 8 м

Текущие метеонаблюдения

Эта сводка был подготовлена 1 час и 3 минут назад, в 11:00 UTC
Ветер 18 Узел от восточный
Температура 30°C
Влажность 66%
Давление 1013 hPa
Видимость 10 км и более
небольшая облачность на высоте 2000 фута

METAR: FMSD 031100Z 08018KT 9999 FEW020 30/23 Q1013

Время: 15:03 (12:03 UTC)


TAF: отсутствует

Метеонаблюдения и прогнозы для более 4000 аэропортов (сводки METAR и TAF).

Имеющиеся станции представлены на карте желтыми и красными точками.

Чтобы увидеть название станции, наведите на нее мышь.

Затем щелкните, чтобы увидеть метеонаблюдения и метеопрогнозы.

Управление картой: чтобы увеличить масштаб, щелкните зеленые кнопки с черным крестиком; чтобы уменьшить масштаб, щелкните зеленую кнопку с тире; для просмотра соседних карт щелкайте зеленые стрелки.


METAR-TAF: